Time;durP1;ratioP1;P1;durP2;ratioP2;P2;SDS_P1;SDS_P2;PMS_P1;PMS_P2;Temp;Humidity;BMP_temperature;BMP_pressure;BME280_temperature;BME280_humidity;BME280_pressure;Samples;Min_cycle;Max_cycle;Signal;HPM_P1;HPM_P2
2022/03/23 00:01:15;;;;;;;36.83;18.58;;;;;;;6.36;50.31;100388.13;5225036;28;20052;-89
2022/03/23 00:04:06;;;;;;;42.22;21.15;;;;;;;5.86;51.84;100368.78;5224294;28;20059;-87
2022/03/23 00:06:57;;;;;;;41.20;22.27;;;;;;;5.68;51.51;100359.19;5223966;28;20056;-86
2022/03/23 00:09:48;;;;;;;40.25;21.67;;;;;;;5.64;53.87;100379.56;5212096;28;20068;-87
2022/03/23 00:12:47;;;;;;;41.92;20.48;;;;;;;6.04;51.69;100387.22;5210793;28;20117;-86
2022/03/23 00:15:38;;;;;;;40.95;18.33;;;;;;;5.68;52.04;100396.03;5223293;28;20049;-84
2022/03/23 00:18:28;;;;;;;33.90;18.60;;;;;;;5.17;51.46;100361.78;5221040;28;20056;-84
2022/03/23 00:21:20;;;;;;;33.70;18.00;;;;;;;5.25;53.05;100386.84;5212684;28;20494;-82
2022/03/23 00:24:10;;;;;;;39.13;18.52;;;;;;;5.72;52.59;100391.47;5214122;28;20442;-83
2022/03/23 00:27:00;;;;;;;32.25;16.95;;;;;;;5.98;50.41;100377.84;5213167;28;20087;-83
2022/03/23 00:29:51;;;;;;;33.45;17.58;;;;;;;5.25;52.33;100366.63;5228938;28;20067;-83
2022/03/23 00:32:41;;;;;;;34.28;17.30;;;;;;;5.19;52.96;100382.72;5213946;28;20110;-83
2022/03/23 00:35:32;;;;;;;31.88;16.85;;;;;;;5.07;52.89;100389.44;5198919;28;20105;-82
2022/03/23 00:38:23;;;;;;;33.95;16.67;;;;;;;4.96;53.06;100373.31;5221111;28;20060;-82
2022/03/23 00:41:14;;;;;;;34.83;16.63;;;;;;;4.86;53.27;100375.53;5195780;28;20055;-82
2022/03/23 00:44:04;;;;;;;30.83;15.85;;;;;;;4.72;52.94;100376.22;5212784;28;20142;-82
2022/03/23 00:46:54;;;;;;;30.13;15.05;;;;;;;4.71;53.38;100369.25;5212151;28;20056;-82
2022/03/23 00:49:45;;;;;;;34.85;15.98;;;;;;;4.84;53.62;100387.09;5227100;28;20056;-82
2022/03/23 00:52:37;;;;;;;31.85;16.67;;;;;;;4.82;53.98;100383.66;5198145;28;20055;-83
2022/03/23 00:55:29;;;;;;;29.02;14.18;;;;;;;5.19;52.47;100378.31;5212095;28;20165;-83
2022/03/23 00:58:19;;;;;;;30.25;15.15;;;;;;;4.88;53.19;100364.97;5206474;28;20201;-83
2022/03/23 01:01:13;;;;;;;32.40;16.23;;;;;;;4.97;53.25;100393.44;5212380;28;20101;-82
2022/03/23 01:04:05;;;;;;;35.38;15.68;;;;;;;4.97;53.74;100387.31;5211433;28;20052;-83
2022/03/23 01:06:56;;;;;;;32.08;15.82;;;;;;;4.69;53.57;100362.38;5221570;28;20056;-83
2022/03/23 01:09:46;;;;;;;38.95;18.65;;;;;;;4.79;55.14;100394.31;5198850;28;20071;-83
2022/03/23 01:12:40;;;;;;;38.45;18.98;;;;;;;4.54;55.94;100356.09;5211901;28;20095;-83
2022/03/23 01:15:30;;;;;;;44.20;20.73;;;;;;;4.25;58.58;100370.56;5211959;28;20510;-82
2022/03/23 01:18:20;;;;;;;42.75;20.38;;;;;;;4.38;58.55;100384.81;5227614;28;20061;-82
2022/03/23 01:21:10;;;;;;;41.05;20.10;;;;;;;4.28;58.67;100370.41;5212017;28;20078;-83
2022/03/23 01:24:01;;;;;;;35.42;18.83;;;;;;;4.26;58.22;100377.50;5222579;28;20091;-82
2022/03/23 01:26:51;;;;;;;46.72;21.20;;;;;;;4.07;59.75;100364.34;5246100;28;20060;-83
2022/03/23 01:29:41;;;;;;;47.25;19.17;;;;;;;4.25;57.49;100381.06;5205736;28;20059;-83
2022/03/23 01:32:33;;;;;;;44.65;19.08;;;;;;;4.12;58.34;100390.41;5212137;28;20112;-83
2022/03/23 01:35:23;;;;;;;37.75;19.42;;;;;;;4.31;57.29;100388.66;5210485;28;20123;-83
2022/03/23 01:38:13;;;;;;;37.20;18.88;;;;;;;4.34;56.90;100387.63;5205381;28;20094;-83
2022/03/23 01:41:04;;;;;;;36.92;17.13;;;;;;;4.17;56.91;100372.66;5212036;28;20059;-82
2022/03/23 01:43:55;;;;;;;35.42;17.60;;;;;;;3.96;57.08;100356.97;5217001;28;20547;-83
2022/03/23 01:47:06;;;;;;;33.83;17.75;;;;;;;3.97;56.72;100377.06;5226872;28;20154;-82
2022/03/23 01:49:57;;;;;;;37.10;17.63;;;;;;;3.65;57.63;100348.75;5228318;28;20311;-82
2022/03/23 01:52:49;;;;;;;34.78;17.85;;;;;;;4.04;56.09;100366.25;5228566;28;20064;-82
2022/03/23 01:55:39;;;;;;;37.80;16.75;;;;;;;3.86;57.64;100366.16;5213026;28;20071;-82
2022/03/23 01:58:31;;;;;;;34.75;16.83;;;;;;;3.46;57.92;100359.19;5205083;28;20323;-84
2022/03/23 02:01:21;;;;;;;35.22;16.90;;;;;;;3.66;58.07;100380.16;5212109;28;20068;-83
2022/03/23 02:04:13;;;;;;;31.10;17.20;;;;;;;3.85;56.80;100367.09;5215102;28;20134;-83
2022/03/23 02:07:04;;;;;;;32.83;16.95;;;;;;;3.53;57.63;100377.19;5214989;28;20048;-83
2022/03/23 02:09:54;;;;;;;32.83;15.65;;;;;;;3.50;57.66;100352.88;5210539;28;20499;-83
2022/03/23 02:13:06;;;;;;;34.63;16.67;;;;;;;3.28;58.38;100366.91;5210622;28;20041;-82
2022/03/23 02:15:58;;;;;;;34.42;16.38;;;;;;;3.19;57.25;100364.66;5192703;28;20106;-83
2022/03/23 02:18:51;;;;;;;35.30;17.35;;;;;;;3.26;58.03;100378.38;5211079;28;20303;-82
2022/03/23 02:21:42;;;;;;;39.38;18.85;;;;;;;3.32;58.61;100395.63;5209728;28;20138;-82
2022/03/23 02:24:33;;;;;;;36.67;17.10;;;;;;;3.26;58.59;100389.69;5210622;28;20041;-82
2022/03/23 02:27:23;;;;;;;32.25;17.17;;;;;;;3.00;58.72;100368.94;5210960;28;20682;-81
2022/03/23 02:30:13;;;;;;;33.00;17.65;;;;;;;3.20;59.04;100394.34;5210170;28;20053;-83
2022/03/23 02:33:04;;;;;;;42.78;17.83;;;;;;;3.11;58.83;100361.50;5225400;28;20048;-83
2022/03/23 02:35:54;;;;;;;39.20;17.55;;;;;;;3.20;58.33;100373.38;5224518;28;20483;-82
2022/03/23 02:38:44;;;;;;;35.50;17.40;;;;;;;3.00;58.27;100368.94;5197019;28;20129;-82
2022/03/23 02:41:34;;;;;;;34.45;17.90;;;;;;;2.98;59.18;100373.38;5194242;28;20179;-82
2022/03/23 02:44:29;;;;;;;36.97;17.33;;;;;;;2.93;59.30;100383.22;5211224;28;20052;-82
2022/03/23 02:47:20;;;;;;;41.63;16.92;;;;;;;2.89;59.41;100373.78;5207367;28;20106;-84
2022/03/23 02:50:10;;;;;;;40.17;18.40;;;;;;;3.17;59.08;100382.22;5225514;28;20095;-81
2022/03/23 03:02:57;;;;;;;34.20;17.00;;;;;;;2.71;57.98;100394.53;5180920;28;20429;-83
2022/03/23 03:05:47;;;;;;;30.75;16.98;;;;;;;2.88;57.69;100411.34;5209492;28;20436;-83
2022/03/23 03:08:46;;;;;;;30.08;16.40;;;;;;;2.66;58.55;100386.00;5197350;28;20059;-84
2022/03/23 03:11:36;;;;;;;35.58;17.33;;;;;;;2.81;58.54;100390.66;5210026;28;20053;-84
2022/03/23 03:14:27;;;;;;;35.75;17.48;;;;;;;3.08;58.47;100410.56;5211702;28;20056;-84
2022/03/23 03:17:17;;;;;;;33.83;16.63;;;;;;;2.93;58.93;100410.25;5219442;28;20060;-84
2022/03/23 03:20:09;;;;;;;32.95;16.40;;;;;;;2.90;59.05;100412.16;5233528;28;20040;-83
2022/03/23 03:22:59;;;;;;;32.10;16.35;;;;;;;2.62;58.75;100379.19;5219713;28;20104;-82
2022/03/23 03:25:49;;;;;;;35.55;16.88;;;;;;;2.59;59.82;100408.97;5211732;28;20106;-84
2022/03/23 03:28:41;;;;;;;30.40;16.20;;;;;;;2.91;58.07;100406.00;5220996;28;20059;-83
2022/03/23 03:31:31;;;;;;;31.75;15.95;;;;;;;2.64;59.22;100419.25;5232446;28;20056;-83
2022/03/23 03:34:21;;;;;;;31.70;16.45;;;;;;;2.61;60.29;100408.88;5249213;28;20041;-83
2022/03/23 03:37:11;;;;;;;30.25;17.00;;;;;;;2.63;59.28;100406.22;5231906;28;20566;-83
2022/03/23 03:40:03;;;;;;;30.13;15.90;;;;;;;2.51;59.70;100405.75;5213667;28;20053;-83
2022/03/23 03:42:53;;;;;;;33.88;16.40;;;;;;;2.40;60.01;100420.19;5213766;28;20095;-84
2022/03/23 03:45:45;;;;;;;34.28;16.85;;;;;;;2.48;60.30;100403.25;5229092;28;20048;-83
2022/03/23 03:48:36;;;;;;;33.97;16.33;;;;;;;2.43;59.16;100426.16;5215678;28;20053;-84
2022/03/23 03:51:26;;;;;;;37.35;17.83;;;;;;;2.21;60.87;100402.53;5209492;28;20049;-82
2022/03/23 03:54:17;;;;;;;34.20;16.42;;;;;;;2.35;60.63;100405.50;5214162;28;20060;-84
2022/03/23 03:57:07;;;;;;;33.75;16.67;;;;;;;2.49;61.38;100425.94;5213425;28;20071;-84
2022/03/23 03:59:58;;;;;;;38.67;17.50;;;;;;;2.47;61.38;100409.41;5214590;28;20142;-84
2022/03/23 04:02:48;;;;;;;35.05;17.15;;;;;;;2.28;61.23;100396.16;5202310;28;20139;-83
2022/03/23 04:05:38;;;;;;;38.20;17.15;;;;;;;2.35;60.06;100413.38;5221725;28;20107;-81
2022/03/23 04:08:28;;;;;;;35.22;17.30;;;;;;;2.25;60.75;100409.38;5208178;28;20122;-81
2022/03/23 04:11:19;;;;;;;39.47;16.85;;;;;;;2.13;60.44;100390.66;5207236;28;20531;-83
2022/03/23 04:14:10;;;;;;;30.17;16.40;;;;;;;2.05;61.51;100412.72;5221617;28;20056;-80
2022/03/23 04:17:00;;;;;;;45.58;16.20;;;;;;;2.25;60.15;100425.09;5207776;28;20458;-80
2022/03/23 04:19:51;;;;;;;40.72;17.63;;;;;;;2.21;61.20;100415.63;5222802;28;20132;-83
2022/03/23 04:22:41;;;;;;;39.92;17.67;;;;;;;2.15;62.65;100425.47;5215980;28;20080;-81
2022/03/23 04:25:31;;;;;;;39.17;17.27;;;;;;;2.07;62.35;100410.91;5237408;28;20075;-82
2022/03/23 04:28:21;;;;;;;40.70;17.00;;;;;;;2.21;60.69;100399.91;5225247;28;20079;-80
2022/03/23 04:31:12;;;;;;;35.83;16.50;;;;;;;2.40;60.34;100415.81;5216976;28;20047;-80
2022/03/23 04:34:02;;;;;;;34.03;16.17;;;;;;;2.38;59.71;100406.28;5234551;28;20048;-79
2022/03/23 04:36:53;;;;;;;30.45;15.30;;;;;;;1.86;60.09;100394.22;5226573;28;20064;-80
2022/03/23 04:39:43;;;;;;;35.10;16.42;;;;;;;1.97;60.48;100440.91;5248252;28;20048;-80
2022/03/23 04:42:35;;;;;;;31.00;15.23;;;;;;;2.02;60.81;100435.50;5240906;28;20473;-81
2022/03/23 04:45:25;;;;;;;34.80;16.15;;;;;;;1.70;60.30;100394.81;5245707;28;20053;-81
2022/03/23 04:48:16;;;;;;;31.58;14.73;;;;;;;1.70;60.60;100408.72;5234111;28;20083;-79
2022/03/23 04:51:07;;;;;;;34.20;16.50;;;;;;;1.80;59.98;100409.28;5233530;28;20052;-79
2022/03/23 04:53:57;;;;;;;31.15;14.82;;;;;;;1.79;60.31;100424.13;5233553;28;20037;-79
2022/03/23 04:56:47;;;;;;;29.83;14.70;;;;;;;1.91;60.86;100441.13;5224027;28;20052;-78
2022/03/23 04:59:38;;;;;;;30.00;15.30;;;;;;;1.78;60.81;100445.06;5225010;28;20145;-82
2022/03/23 05:02:28;;;;;;;35.67;15.13;;;;;;;1.62;61.04;100421.19;5224161;28;20064;-79
2022/03/23 05:05:19;;;;;;;32.00;15.50;;;;;;;1.67;61.72;100427.13;5237491;28;20056;-78
2022/03/23 05:08:08;;;;;;;32.72;15.55;;;;;;;1.45;60.89;100386.94;5230216;28;20071;-78
2022/03/23 05:10:58;;;;;;;31.77;15.80;;;;;;;2.33;60.21;100440.50;5225171;28;20045;-83
2022/03/23 05:13:49;;;;;;;31.63;15.30;;;;;;;2.66;59.42;100443.63;5247042;28;20469;-83
2022/03/23 05:16:39;;;;;;;32.40;15.88;;;;;;;2.50;59.82;100425.00;5216524;28;20053;-83
2022/03/23 05:19:30;;;;;;;33.88;17.27;;;;;;;2.54;60.19;100417.91;5245182;28;20052;-83
2022/03/23 05:22:21;;;;;;;43.78;17.08;;;;;;;2.23;61.60;100439.13;5244794;28;20048;-81
2022/03/23 05:25:13;;;;;;;33.45;16.08;;;;;;;2.54;61.07;100438.84;5232055;28;20037;-82
2022/03/23 05:28:06;;;;;;;40.60;19.63;;;;;;;2.62;62.21;100457.75;5243375;28;20041;-84
2022/03/23 05:30:56;;;;;;;45.08;18.83;;;;;;;2.42;63.45;100455.88;5211621;28;20071;-84
2022/03/23 05:33:46;;;;;;;52.78;19.85;;;;;;;2.20;63.73;100445.31;5214371;28;20542;-86
2022/03/23 05:36:37;;;;;;;52.88;21.30;;;;;;;2.38;64.82;100474.34;5214330;28;20071;-85
2022/03/23 05:39:27;;;;;;;41.45;22.15;;;;;;;2.25;63.97;100464.34;5210699;28;20087;-86
2022/03/23 05:42:17;;;;;;;48.58;21.35;;;;;;;2.03;63.84;100422.38;5211507;28;20099;-83
2022/03/23 05:45:08;;;;;;;47.85;20.35;;;;;;;2.32;63.96;100476.28;5209486;28;20052;-85
2022/03/23 05:47:58;;;;;;;46.67;19.88;;;;;;;2.27;63.82;100466.91;5211440;28;20106;-83
2022/03/23 05:50:48;;;;;;;51.17;19.00;;;;;;;2.39;61.58;100476.94;5230993;28;20634;-84
2022/03/23 05:53:40;;;;;;;45.40;19.60;;;;;;;2.54;62.28;100465.88;5188431;28;20053;-89
2022/03/23 05:56:30;;;;;;;45.28;19.85;;;;;;;2.44;61.56;100447.94;5208707;28;20078;-86
2022/03/23 05:59:20;;;;;;;47.80;20.95;;;;;;;2.49;61.54;100474.84;5191058;28;20052;-84
2022/03/23 06:02:11;;;;;;;47.10;20.00;;;;;;;2.46;62.84;100481.03;5211645;28;20282;-82
2022/03/23 06:05:01;;;;;;;38.97;19.85;;;;;;;2.28;61.36;100458.13;5230143;28;20136;-82
2022/03/23 06:07:52;;;;;;;38.22;19.60;;;;;;;2.35;62.15;100480.53;5216489;28;20059;-81
2022/03/23 06:10:42;;;;;;;41.58;19.13;;;;;;;2.45;61.86;100481.94;5216893;28;20442;-84
2022/03/23 06:13:32;;;;;;;41.33;19.58;;;;;;;2.38;62.41;100474.34;5230807;28;20079;-84
2022/03/23 06:16:22;;;;;;;42.42;19.75;;;;;;;2.50;62.82;100471.28;5207029;28;20056;-85
2022/03/23 06:19:14;;;;;;;42.35;19.13;;;;;;;2.53;63.30;100476.41;5214837;28;20072;-83
2022/03/23 06:22:05;;;;;;;42.97;19.05;;;;;;;2.53;63.13;100452.84;5225063;28;20116;-83
2022/03/23 06:24:55;;;;;;;43.60;19.63;;;;;;;2.73;62.71;100475.66;5200518;28;20049;-85
2022/03/23 06:27:45;;;;;;;42.17;19.02;;;;;;;2.82;63.57;100491.06;5215353;28;20048;-84
2022/03/23 06:30:36;;;;;;;43.80;19.08;;;;;;;2.87;62.86;100469.91;5215502;28;20053;-84
2022/03/23 06:33:26;;;;;;;52.22;19.30;;;;;;;2.89;63.47;100486.44;5214337;28;20116;-83
2022/03/23 06:36:16;;;;;;;38.08;18.58;;;;;;;2.95;63.09;100491.44;5213773;28;20064;-84
2022/03/23 06:39:06;;;;;;;43.63;18.63;;;;;;;2.95;63.20;100481.81;5230017;28;20055;-85
2022/03/23 06:41:57;;;;;;;45.70;18.77;;;;;;;3.18;61.67;100498.38;5214390;28;20059;-83
2022/03/23 06:44:47;;;;;;;46.50;18.70;;;;;;;3.36;61.62;100489.81;5215061;28;20064;-86
2022/03/23 06:47:37;;;;;;;42.47;17.05;;;;;;;3.26;60.93;100499.78;5213143;28;20585;-86
2022/03/23 06:50:27;;;;;;;37.53;17.90;;;;;;;3.30;60.67;100492.66;5214065;28;20111;-85
2022/03/23 06:53:17;;;;;;;39.45;18.65;;;;;;;3.50;59.43;100502.34;5201429;28;20045;-84
2022/03/23 06:56:08;;;;;;;38.25;19.38;;;;;;;3.56;59.51;100502.09;5228948;28;20053;-84
2022/03/23 06:58:58;;;;;;;41.40;18.75;;;;;;;3.74;60.66;100509.22;5230177;28;20499;-84
2022/03/23 07:01:49;;;;;;;41.40;19.20;;;;;;;3.32;61.43;100480.34;5203497;28;20108;-84
2022/03/23 07:04:39;;;;;;;36.25;18.27;;;;;;;4.05;59.15;100512.34;5195891;28;20049;-85
2022/03/23 07:07:30;;;;;;;42.47;18.20;;;;;;;4.14;58.81;100506.66;5210421;28;20084;-84
2022/03/23 07:10:20;;;;;;;41.15;19.02;;;;;;;4.30;59.83;100530.50;5221957;28;20060;-86
2022/03/23 07:13:10;;;;;;;35.20;18.13;;;;;;;4.65;59.67;100526.34;5223180;28;20119;-84
2022/03/23 07:16:00;;;;;;;44.65;19.23;;;;;;;4.78;57.99;100527.50;5235635;28;20056;-86
2022/03/23 07:18:50;;;;;;;47.40;19.35;;;;;;;4.84;58.53;100513.22;5207400;28;20060;-84
2022/03/23 07:21:40;;;;;;;42.97;18.30;;;;;;;5.05;57.09;100520.09;5219782;28;20142;-84
2022/03/23 07:24:30;;;;;;;46.88;19.98;;;;;;;5.36;56.52;100508.13;5220006;28;20427;-82
2022/03/23 07:27:24;;;;;;;47.83;19.73;;;;;;;5.46;56.58;100517.28;5220446;28;20049;-84
2022/03/23 07:30:14;;;;;;;41.03;20.45;;;;;;;6.79;54.26;100528.97;5220989;28;20056;-84
2022/03/23 07:33:05;;;;;;;36.30;19.15;;;;;;;7.33;52.22;100535.75;5220648;28;20106;-83
2022/03/23 07:35:55;;;;;;;42.00;19.75;;;;;;;7.74;51.36;100501.72;5223545;28;20045;-85
2022/03/23 07:38:45;;;;;;;42.13;18.63;;;;;;;9.02;47.58;100501.03;5225975;28;20053;-84
2022/03/23 07:41:36;;;;;;;46.80;18.65;;;;;;;10.39;45.83;100524.69;5237733;28;20047;-83
2022/03/23 07:44:26;;;;;;;51.90;18.45;;;;;;;11.25;44.15;100538.09;5239081;28;20083;-85
2022/03/23 07:47:16;;;;;;;43.03;19.70;;;;;;;11.20;43.54;100521.66;5221153;28;20072;-86
2022/03/23 07:50:07;;;;;;;44.80;19.00;;;;;;;10.88;43.58;100508.03;5224315;28;20121;-86
2022/03/23 07:52:57;;;;;;;36.85;18.42;;;;;;;11.98;41.45;100523.03;5212550;28;20041;-84
2022/03/23 07:55:48;;;;;;;38.47;18.75;;;;;;;12.25;42.25;100529.88;5217037;28;20063;-83
2022/03/23 07:58:38;;;;;;;39.78;19.15;;;;;;;12.84;40.43;100527.06;5248280;28;20083;-84
2022/03/23 08:01:28;;;;;;;40.30;18.75;;;;;;;13.01;38.63;100501.75;5242117;28;20124;-83
2022/03/23 08:04:18;;;;;;;39.33;19.88;;;;;;;14.59;36.15;100528.72;5222007;28;20025;-84
2022/03/23 08:07:08;;;;;;;39.97;21.48;;;;;;;14.84;36.75;100533.63;5219580;28;20402;-85
2022/03/23 08:09:59;;;;;;;42.85;20.27;;;;;;;14.86;36.56;100526.31;5203446;28;20451;-86
2022/03/23 08:12:50;;;;;;;42.38;20.33;;;;;;;15.59;34.98;100510.06;5215858;28;20056;-85
2022/03/23 08:15:40;;;;;;;44.17;21.02;;;;;;;15.51;36.91;100516.13;5200035;28;20126;-86
2022/03/23 08:18:32;;;;;;;36.72;19.50;;;;;;;15.60;36.04;100519.81;5235032;28;20088;-84
2022/03/23 08:21:23;;;;;;;31.70;19.30;;;;;;;14.64;36.58;100499.81;5236773;28;20052;-84
2022/03/23 08:24:14;;;;;;;35.28;19.25;;;;;;;14.09;38.87;100474.19;5237126;28;20067;-84
2022/03/23 08:27:04;;;;;;;46.22;19.20;;;;;;;14.29;38.48;100525.00;5237377;28;20037;-84
2022/03/23 08:29:55;;;;;;;40.28;20.30;;;;;;;14.45;37.47;100517.38;5237967;28;20063;-84
2022/03/23 08:32:46;;;;;;;34.55;20.05;;;;;;;14.78;37.35;100507.47;5222823;28;20108;-84
2022/03/23 08:35:37;;;;;;;38.03;19.75;;;;;;;13.15;39.14;100528.16;5234625;28;20063;-85
2022/03/23 08:38:27;;;;;;;40.10;20.98;;;;;;;13.99;38.63;100537.28;5236186;28;20037;-84
2022/03/23 08:41:18;;;;;;;33.13;19.98;;;;;;;14.67;38.59;100531.56;5236850;28;20025;-85
2022/03/23 08:44:09;;;;;;;44.42;21.75;;;;;;;15.30;36.47;100529.59;5215651;28;20045;-85
2022/03/23 08:47:00;;;;;;;48.50;22.20;;;;;;;14.33;37.76;100507.75;5235772;28;20049;-84
2022/03/23 08:49:51;;;;;;;35.55;20.73;;;;;;;14.41;36.92;100499.09;5226930;28;20040;-84
2022/03/23 08:52:42;;;;;;;38.72;21.95;;;;;;;14.46;38.99;100512.88;5242181;28;20095;-85
2022/03/23 08:55:32;;;;;;;45.63;21.75;;;;;;;14.50;40.52;100527.66;5215844;28;20048;-84
2022/03/23 08:58:23;;;;;;;44.13;22.13;;;;;;;15.98;37.11;100511.81;5236958;28;20056;-84
2022/03/23 09:01:15;;;;;;;43.03;22.00;;;;;;;16.08;35.82;100505.59;5242201;28;20056;-84
2022/03/23 09:04:08;;;;;;;44.55;22.60;;;;;;;15.85;34.57;100513.91;5236647;28;20099;-83
2022/03/23 09:06:57;;;;;;;40.65;22.15;;;;;;;13.94;38.18;100512.81;5221424;28;20064;-84
2022/03/23 09:09:47;;;;;;;40.17;21.77;;;;;;;15.08;36.91;100508.44;5218289;28;20098;-85
2022/03/23 09:12:38;;;;;;;37.28;22.15;;;;;;;15.16;36.30;100516.59;5219070;28;20059;-85
2022/03/23 09:15:30;;;;;;;38.45;22.02;;;;;;;14.72;37.89;100492.81;5226266;28;20053;-86
2022/03/23 09:18:20;;;;;;;39.65;22.27;;;;;;;17.11;32.99;100502.06;5215761;28;20651;-85
2022/03/23 09:21:10;;;;;;;41.47;23.48;;;;;;;17.56;34.07;100511.97;5214668;28;20064;-85
2022/03/23 09:24:00;;;;;;;43.97;23.85;;;;;;;17.09;34.64;100504.06;5213320;28;20178;-85
2022/03/23 09:26:51;;;;;;;51.15;23.75;;;;;;;17.65;32.58;100510.19;5213004;28;20044;-85
2022/03/23 09:29:41;;;;;;;44.42;23.10;;;;;;;16.43;34.57;100497.81;5208415;28;20105;-84
2022/03/23 09:32:31;;;;;;;44.63;23.75;;;;;;;17.54;34.45;100506.75;5207360;28;20586;-84
2022/03/23 09:35:22;;;;;;;53.13;22.80;;;;;;;18.01;31.52;100503.00;5211682;28;20107;-84
2022/03/23 09:38:12;;;;;;;38.92;23.10;;;;;;;17.31;32.17;100498.28;5211105;28;20617;-85
2022/03/23 09:41:03;;;;;;;42.00;24.00;;;;;;;18.36;32.81;100477.13;5199265;28;20116;-85
2022/03/23 09:43:54;;;;;;;42.67;24.05;;;;;;;17.79;31.74;100512.41;5208210;28;20438;-85
2022/03/23 09:46:45;;;;;;;41.55;23.45;;;;;;;18.11;35.13;100498.41;5228107;28;20159;-84
2022/03/23 09:49:35;;;;;;;45.15;23.80;;;;;;;17.92;30.53;100491.38;5215446;28;20057;-84
2022/03/23 09:52:25;;;;;;;42.65;23.50;;;;;;;19.14;29.13;100487.75;5213696;28;20051;-84
2022/03/23 09:55:23;;;;;;;40.13;22.33;;;;;;;19.17;29.63;100493.69;5215922;28;20036;-86
2022/03/23 09:58:14;;;;;;;45.38;24.92;;;;;;;19.78;28.22;100499.72;5223571;28;20048;-86
2022/03/23 10:01:26;;;;;;;40.50;23.45;;;;;;;18.24;32.59;100485.41;5218038;28;20155;-85
2022/03/23 10:04:58;;;;;;;35.45;21.42;;;;;;;17.95;30.13;100491.09;5228726;22;20403;-70
2022/03/23 10:07:56;;;;;;;38.60;21.77;;;;;;;18.58;30.20;100484.66;5207426;28;20056;-70
2022/03/23 10:11:23;;;;;;;31.50;21.20;;;;;;;18.46;31.20;100489.44;5222769;28;20083;-69
2022/03/23 10:15:26;;;;;;;35.55;21.52;;;;;;;19.24;31.75;100494.72;5222793;28;20060;-70
2022/03/23 10:18:20;;;;;;;33.72;20.48;;;;;;;20.15;28.63;100485.75;5222666;28;20051;-70
2022/03/23 10:21:10;;;;;;;31.73;18.73;;;;;;;17.97;30.57;100482.88;5220001;28;20064;-68
2022/03/23 10:24:00;;;;;;;34.42;17.88;;;;;;;18.22;28.78;100482.06;5218780;28;20138;-69
2022/03/23 10:26:50;;;;;;;31.55;17.42;;;;;;;18.98;26.67;100475.97;5220524;28;20060;-70
2022/03/23 10:29:44;;;;;;;30.55;16.80;;;;;;;18.92;26.18;100470.38;5222110;28;20151;-70
2022/03/23 10:32:42;;;;;;;34.67;17.48;;;;;;;20.03;27.47;100470.94;5218999;28;20120;-70
2022/03/23 10:35:40;;;;;;;25.27;17.35;;;;;;;19.96;26.60;100469.94;5222562;28;20128;-70
2022/03/23 10:38:37;;;;;;;34.40;17.95;;;;;;;19.94;28.42;100466.59;5222415;28;20053;-70
2022/03/23 10:41:29;;;;;;;29.80;17.05;;;;;;;19.18;27.28;100463.09;5222000;28;20052;-70
2022/03/23 10:44:19;;;;;;;32.38;17.45;;;;;;;20.47;27.22;100464.34;5205957;28;20056;-70
2022/03/23 10:47:21;;;;;;;29.35;17.38;;;;;;;19.85;25.78;100454.97;5217964;28;20052;-70
2022/03/23 10:50:13;;;;;;;34.85;19.02;;;;;;;19.54;25.26;100452.06;5225863;28;20686;-70
2022/03/23 10:53:07;;;;;;;26.92;17.45;;;;;;;19.33;26.39;100455.22;5226658;28;20056;-70
2022/03/23 10:55:57;;;;;;;28.83;18.40;;;;;;;19.30;26.09;100454.72;5226386;28;20053;-70
2022/03/23 10:58:47;;;;;;;25.33;17.20;;;;;;;19.77;25.25;100452.28;5226798;28;20060;-69
2022/03/23 11:02:00;;;;;;;28.83;17.98;;;;;;;19.41;25.70;100432.91;5225243;28;20144;-70
2022/03/23 11:04:56;;;;;;;29.27;17.80;;;;;;;18.69;27.07;100433.31;5224846;28;20060;-69
2022/03/23 11:07:46;;;;;;;31.65;17.10;;;;;;;19.19;26.46;100432.50;5225119;28;20142;-69
2022/03/23 11:17:27;;;;;;;31.17;17.17;;;;;;;18.67;31.27;100421.03;5214639;28;20719;-69
2022/03/23 11:20:17;;;;;;;33.88;17.83;;;;;;;19.47;27.69;100424.16;5226007;28;20056;-69
2022/03/23 11:23:30;;;;;;;27.17;16.50;;;;;;;20.24;29.79;100419.25;5211270;28;20056;-69
2022/03/23 11:26:21;;;;;;;27.95;16.20;;;;;;;20.11;25.39;100409.03;5225994;28;20098;-68
2022/03/23 11:29:12;;;;;;;29.10;14.57;;;;;;;19.57;23.78;100400.63;5226167;28;20110;-67
2022/03/23 11:32:07;;;;;;;20.08;13.98;;;;;;;19.73;22.83;100385.50;5214487;28;20056;-67
2022/03/23 11:35:00;;;;;;;16.27;12.02;;;;;;;18.14;23.05;100408.66;5224576;28;20044;-68
2022/03/23 11:37:50;;;;;;;19.63;12.07;;;;;;;18.63;23.13;100399.03;5225690;28;20061;-69
2022/03/23 11:40:42;;;;;;;17.58;11.55;;;;;;;19.48;21.66;100383.63;5223531;28;20081;-69
2022/03/23 11:43:37;;;;;;;16.98;11.80;;;;;;;19.57;22.50;100397.06;5221740;28;20499;-70
2022/03/23 11:46:45;;;;;;;19.38;11.35;;;;;;;20.35;24.00;100396.50;5213251;28;20146;-69
2022/03/23 11:49:51;;;;;;;16.15;11.07;;;;;;;20.54;23.82;100388.06;5225353;28;20499;-69
2022/03/23 11:53:03;;;;;;;18.67;12.65;;;;;;;20.59;23.75;100387.53;5209767;28;20045;-69
2022/03/23 11:55:56;;;;;;;18.70;12.63;;;;;;;20.77;23.84;100379.19;5224003;28;20055;-68
2022/03/23 11:58:46;;;;;;;17.98;12.35;;;;;;;20.31;23.70;100370.94;5224650;28;20074;-70
2022/03/23 12:01:36;;;;;;;19.73;13.07;;;;;;;19.36;23.47;100379.59;5225799;28;20106;-73
2022/03/23 12:04:28;;;;;;;18.13;12.20;;;;;;;20.18;23.60;100384.94;5225250;28;20483;-71
2022/03/23 12:07:18;;;;;;;20.27;11.52;;;;;;;20.46;24.10;100374.56;5224617;28;20045;-71
2022/03/23 12:10:22;;;;;;;18.77;12.50;;;;;;;19.76;22.16;100369.03;5225692;28;20190;-73
2022/03/23 12:13:16;;;;;;;28.70;17.92;;;;;;;20.16;22.92;100370.78;5224994;28;20076;-68
2022/03/23 12:16:06;;;;;;;27.63;14.77;;;;;;;20.09;22.81;100362.56;5224655;28;20041;-67
2022/03/23 12:19:01;;;;;;;24.67;14.77;;;;;;;19.95;24.23;100352.50;5225444;28;20127;-66
2022/03/23 12:22:06;;;;;;;;;;;;;;;19.30;25.45;100352.50;5210470;28;20056;-66
2022/03/23 12:25:04;;;;;;;25.60;14.32;;;;;;;19.76;24.67;100347.50;5208941;28;19921;-69
2022/03/23 12:27:54;;;;;;;22.17;15.75;;;;;;;18.66;25.34;100355.72;5187621;28;20521;-68
2022/03/23 12:30:55;;;;;;;22.60;14.77;;;;;;;19.77;24.72;100344.66;5209158;28;20051;-68
2022/03/23 12:34:06;;;;;;;23.08;15.48;;;;;;;19.34;25.02;100340.44;5224313;28;20132;-68
2022/03/23 12:37:16;;;;;;;27.52;15.00;;;;;;;19.46;27.13;100331.84;5221488;28;20045;-67
2022/03/23 12:40:14;;;;;;;29.48;18.50;;;;;;;19.35;24.96;100325.97;5224269;28;20072;-67
2022/03/23 12:43:04;;;;;;;27.73;16.85;;;;;;;19.29;25.74;100330.16;5225017;28;20080;-67
2022/03/23 12:45:54;;;;;;;26.80;15.73;;;;;;;19.69;27.40;100326.63;5195234;28;20067;-68
2022/03/23 12:58:48;;;;;;;19.48;12.60;;;;;;;19.08;25.33;100319.91;5219816;28;20057;-68
2022/03/23 13:01:39;;;;;;;20.50;12.95;;;;;;;19.55;25.53;100308.47;5216670;28;20565;-67
2022/03/23 13:04:42;;;;;;;20.73;12.85;;;;;;;19.45;23.73;100302.44;5219738;28;20060;-67
2022/03/23 13:07:32;;;;;;;21.27;12.60;;;;;;;18.90;24.74;100303.91;5214822;28;20458;-68
2022/03/23 13:10:24;;;;;;;24.48;12.13;;;;;;;19.36;24.60;100303.44;5218829;28;20053;-67
2022/03/23 13:13:18;;;;;;;20.23;12.00;;;;;;;18.56;23.88;100293.22;5208502;28;20426;-67
2022/03/23 13:16:12;;;;;;;;;;;;;;;19.04;24.11;100294.38;5222986;28;20056;-67
2022/03/23 13:19:09;;;;;;;18.30;13.07;;;;;;;18.44;23.98;100291.84;5222808;28;19928;-68
2022/03/23 13:21:59;;;;;;;22.77;13.20;;;;;;;18.54;25.16;100290.72;5222615;28;20076;-67
2022/03/23 13:25:01;;;;;;;16.48;12.27;;;;;;;18.90;24.59;100286.94;5220694;28;20099;-67
2022/03/23 13:27:51;;;;;;;21.63;13.05;;;;;;;18.86;24.89;100282.91;5222720;28;20060;-67
2022/03/23 13:30:42;;;;;;;26.58;13.80;;;;;;;18.79;23.33;100250.50;5212191;28;20710;-67
2022/03/23 13:33:39;;;;;;;22.27;12.82;;;;;;;18.80;25.63;100280.88;5223185;28;20426;-69
2022/03/23 13:36:32;;;;;;;22.27;13.27;;;;;;;18.86;23.81;100277.53;5223110;28;20052;-69